CheckWX is a tool to help pilots better visualize weather data.  It is not intended as a substitute for an official pre-flight weather briefing.

13:55:18 UTC

CWPX METAR
Cape Peel West Airport
Canada
Current

17 mins ago

CWPX 261338Z AUTO 26012KT ////SM //// SCT013 BKN065 M20/M23 A2988
Observed
Apr-26 @ 13:38 UTC
Wind
  • 260° at 12 KTS
Visibility
Cloud Levels
  • Scattered at 1,300' AGL
  • Broken at 6,500' AGL
Temperature
-20°C / -4°F
Dewpoint
-23°C / -9°F
Humidity
77%
Altimeter
29.88" Hg
Pressure
1011.82 hPa
Previous

48 mins ago

CWPX 261307Z AUTO 25011KT ////SM //// FEW003 BKN014 M21/M24 A2989
Observed
Apr-26 @ 13:07 UTC
Wind
  • 250° at 11 KTS
Visibility
Cloud Levels
  • Few at 300' AGL
  • Broken at 1,400' AGL
Temperature
-21°C / -6°F
Dewpoint
-24°C / -11°F
Humidity
77%
Altimeter
29.89" Hg
Pressure
1012.22 hPa
Previous

1 hour ago

CWPX 261237Z AUTO 23011KT ////SM //// OVC014 M21/M24 A2990
Observed
Apr-26 @ 12:37 UTC
Wind
  • 230° at 11 KTS
Visibility
Cloud Levels
  • Overcast at 1,400' AGL
Temperature
-21°C / -6°F
Dewpoint
-24°C / -11°F
Humidity
77%
Altimeter
29.9" Hg
Pressure
1012.52 hPa